Wilson Clyde — 8PRV — position and weather

sailwx.info

Track history (hours):
 
Tides and Currents Weather Stations Pressure Air Temp Water Temp Dewpoint Dewpoint Depression Visibility Wind Speed Wind Dir Waves Ship Positions

Wilson Clyde

Last reported at 2017-Jun-24 08:28 UTC. Time now 2017-Jun-24 08:57 UTC.
Position N 68°24' E 016°50'.

Length 100 m; draft 4 m.

Type: Cargo ship. MMSI: 314187000.

Date/timePositionNaut miles runAvg speedWind from/ knotsBaromVisibWave heightAir tempDewpointWater temp
2017-Jun-24 08:28N 68°24' E 016°50'0 0.0
2017-Jun-24 07:58N 68°24' E 016°50'0 0.0
2017-Jun-24 07:28N 68°24' E 016°50'0 0.0
2017-Jun-24 06:58N 68°24' E 016°50'0 0.0
2017-Jun-24 06:28N 68°24' E 016°50'0 0.0
2017-Jun-24 05:58N 68°24' E 016°50'0 0.0
2017-Jun-24 05:28N 68°24' E 016°50'0 0.0
2017-Jun-24 04:58N 68°24' E 016°50'0 0.0
2017-Jun-24 04:30N 68°24' E 016°50'1 1.2
2017-Jun-24 04:00N 68°25' E 016°51'5 9.8
2017-Jun-24 03:29N 68°26' E 016°37'511.1
2017-Jun-24 03:00N 68°24' E 016°23'510.8
2017-Jun-24 02:30N 68°23' E 016°09'4 6.8
2017-Jun-24 01:55N 68°25' E 016°01'0 0.1
2017-Jun-24 01:28N 68°25' E 016°01'0 0.0
2017-Jun-24 00:58N 68°25' E 016°00'0 0.0
2017-Jun-24 00:28N 68°25' E 016°00'0 0.1
2017-Jun-23 23:58N 68°25' E 016°01'0 0.0
2017-Jun-23 23:28N 68°25' E 016°01'0 0.0
2017-Jun-23 22:58N 68°25' E 016°01'0 0.0
2017-Jun-23 22:28N 68°25' E 016°01'0 0.0
2017-Jun-23 21:58N 68°25' E 016°01'0 0.0
2017-Jun-23 21:28N 68°25' E 016°01'0 0.0
2017-Jun-23 20:55N 68°25' E 016°01'0 0.0
2017-Jun-23 20:28N 68°25' E 016°01'0 0.0
2017-Jun-23 19:58N 68°25' E 016°01'0 0.0
2017-Jun-23 19:28N 68°25' E 016°01'0 0.0
2017-Jun-23 18:58N 68°25' E 016°01'0 0.0
2017-Jun-23 18:28N 68°25' E 016°01'0 0.0
2017-Jun-23 17:58N 68°25' E 016°01'0 0.0
2017-Jun-23 17:28N 68°25' E 016°01'0 0.0
2017-Jun-23 16:55N 68°25' E 016°01'0 0.0
2017-Jun-23 16:28N 68°25' E 016°01'0 0.0
2017-Jun-23 15:58N 68°25' E 016°00'0 0.1
2017-Jun-23 15:28N 68°25' E 016°00'1 1.7
2017-Jun-23 15:00N 68°25' E 016°01'1211.4
2017-Jun-23 14:00N 68°16' E 015°42'510.8
2017-Jun-23 13:30N 68°13' E 015°29'611.7
2017-Jun-23 12:59N 68°12' E 015°13'611.9
2017-Jun-23 12:30N 68°12' E 014°57'611.1
2017-Jun-23 12:00N 68°18' E 014°58'611.1
2017-Jun-23 11:30N 68°23' E 015°05'510.3
2017-Jun-23 11:00N 68°27' E 015°12'510.5
2017-Jun-23 10:30N 68°32' E 015°06'4 7.8
2017-Jun-23 10:00N 68°35' E 014°57'0 0.0
2017-Jun-23 09:28N 68°35' E 014°57'0 0.0
2017-Jun-23 08:58N 68°35' E 014°57'0 0.0
2017-Jun-23 08:28N 68°35' E 014°57'0 0.0
2017-Jun-23 07:58N 68°35' E 014°57'0 0.0
2017-Jun-23 07:28N 68°35' E 014°57'0 0.0
2017-Jun-23 06:58N 68°35' E 014°57'0 0.0
2017-Jun-23 06:28N 68°35' E 014°57'0 0.0
2017-Jun-23 05:58N 68°35' E 014°57'0 0.0
2017-Jun-23 05:28N 68°35' E 014°57'0 0.0
2017-Jun-23 04:58N 68°35' E 014°57'0 0.0
2017-Jun-23 04:28N 68°35' E 014°57'0 0.0
2017-Jun-23 03:58N 68°35' E 014°57'0 0.0
2017-Jun-23 03:28N 68°35' E 014°57'0 0.0
2017-Jun-23 02:58N 68°35' E 014°57'0 0.0
2017-Jun-23 02:28N 68°35' E 014°57'0 0.0
2017-Jun-23 01:58N 68°35' E 014°57'0 0.0
2017-Jun-23 01:28N 68°35' E 014°57'0 0.0
2017-Jun-23 00:58N 68°35' E 014°57'0 0.0
2017-Jun-23 00:28N 68°35' E 014°57'0 0.0
2017-Jun-22 23:58N 68°35' E 014°57'0 0.0
2017-Jun-22 23:28N 68°35' E 014°57'0 0.0
2017-Jun-22 22:58N 68°35' E 014°57'0 0.0
2017-Jun-22 22:28N 68°35' E 014°57'0 0.0
2017-Jun-22 21:58N 68°35' E 014°57'0 0.0
2017-Jun-22 21:28N 68°35' E 014°57'0 0.0
2017-Jun-22 20:58N 68°35' E 014°57'0 0.0
2017-Jun-22 20:28N 68°35' E 014°57'0 0.0
2017-Jun-22 19:58N 68°35' E 014°57'0 0.0
2017-Jun-22 19:28N 68°35' E 014°57'0 0.0
2017-Jun-22 18:58N 68°35' E 014°57'0 0.0
2017-Jun-22 18:28N 68°35' E 014°57'0 0.0
2017-Jun-22 17:58N 68°35' E 014°57'0 0.0
2017-Jun-22 17:28N 68°35' E 014°57'0 0.0
2017-Jun-22 16:58N 68°35' E 014°57'0 0.0
2017-Jun-22 16:28N 68°35' E 014°57'0 0.0
2017-Jun-22 15:58N 68°35' E 014°57'0 0.0
2017-Jun-22 15:28N 68°35' E 014°57'0 0.0
2017-Jun-22 14:58N 68°35' E 014°57'0 0.0
2017-Jun-22 14:28N 68°35' E 014°57'0 0.0
2017-Jun-22 13:28N 68°35' E 014°57'0 0.0
2017-Jun-22 12:58N 68°35' E 014°57'0 0.0
2017-Jun-22 12:28N 68°35' E 014°57'0 0.0
2017-Jun-22 11:58N 68°35' E 014°57'0 0.0
2017-Jun-22 11:28N 68°35' E 014°57'0 0.0
2017-Jun-22 10:58N 68°35' E 014°57'0 0.0
2017-Jun-22 10:28N 68°35' E 014°57'0 0.0
2017-Jun-22 09:58N 68°35' E 014°57'0 0.0
2017-Jun-22 09:28N 68°35' E 014°57'0 0.0
2017-Jun-22 08:58N 68°35' E 014°57'0 0.0
2017-Jun-22 08:28N 68°35' E 014°57'0 0.0
2017-Jun-22 07:58N 68°35' E 014°57'0 0.0
2017-Jun-22 07:28N 68°35' E 014°57'0 0.0
2017-Jun-22 06:58N 68°35' E 014°57'0 0.0
2017-Jun-22 06:28N 68°35' E 014°57'0 0.0
2017-Jun-22 05:58N 68°35' E 014°57'0 0.0
2017-Jun-22 05:28N 68°35' E 014°57'0 0.0
2017-Jun-22 04:58N 68°35' E 014°57'0 0.0
2017-Jun-22 04:28N 68°35' E 014°57'0 0.0
2017-Jun-22 03:58N 68°35' E 014°57'0 0.0
2017-Jun-22 03:28N 68°35' E 014°57'0 0.0
2017-Jun-22 02:58N 68°35' E 014°57'0 0.0
2017-Jun-22 02:28N 68°35' E 014°57'0 0.0
2017-Jun-22 01:58N 68°35' E 014°57'0 0.0
2017-Jun-22 01:28N 68°35' E 014°57'0 0.0
2017-Jun-22 00:58N 68°35' E 014°57'0 0.0
2017-Jun-22 00:28N 68°35' E 014°57'0 0.0
2017-Jun-21 23:58N 68°35' E 014°57'0 0.0
2017-Jun-21 23:28N 68°35' E 014°57'0 0.0
2017-Jun-21 22:58N 68°35' E 014°57'0 0.0
2017-Jun-21 22:28N 68°35' E 014°57'0 0.0
2017-Jun-21 21:58N 68°35' E 014°57'0 0.0
2017-Jun-21 21:28N 68°35' E 014°57'0 0.0
2017-Jun-21 20:58N 68°35' E 014°57'0 0.0
2017-Jun-21 20:28N 68°35' E 014°57'0 0.0
2017-Jun-21 19:58N 68°35' E 014°57'0 0.0
2017-Jun-21 19:28N 68°35' E 014°57'0 0.0
2017-Jun-21 18:58N 68°35' E 014°57'0 0.0
2017-Jun-21 18:28N 68°35' E 014°57'0 0.0
2017-Jun-21 17:58N 68°35' E 014°57'0 0.0
2017-Jun-21 17:28N 68°35' E 014°57'0 0.0
2017-Jun-21 16:58N 68°35' E 014°57'0 0.0
2017-Jun-21 16:28N 68°35' E 014°57'0 0.0
2017-Jun-21 15:58N 68°35' E 014°57'0 0.0
2017-Jun-21 15:28N 68°35' E 014°57'0 0.0
2017-Jun-21 14:58N 68°35' E 014°57'0 0.0
2017-Jun-21 14:28N 68°35' E 014°57'0 0.0
2017-Jun-21 11:37N 68°35' E 014°57'0 0.0
2017-Jun-21 10:58N 68°35' E 014°57'0 0.0
2017-Jun-20 20:46N 68°35' E 014°57'0 0.0
2017-Jun-20 08:43N 68°35' E 014°57'0 0.0
2017-Jun-19 12:49N 68°35' E 014°57'0 0.0
2017-Jun-19 12:28N 68°35' E 014°57'0 0.0
2017-Jun-19 11:58N 68°35' E 014°57'0 0.0
2017-Jun-19 11:28N 68°35' E 014°57'0 0.0
2017-Jun-19 10:58N 68°35' E 014°57'0 0.0
2017-Jun-19 10:28N 68°35' E 014°57'0 0.0
2017-Jun-19 09:58N 68°35' E 014°57'0 0.0
2017-Jun-19 09:28N 68°35' E 014°57'0 0.0
2017-Jun-19 08:58N 68°35' E 014°57'0 0.0
2017-Jun-19 08:28N 68°35' E 014°57'0 0.0
2017-Jun-19 07:58N 68°35' E 014°57'0 0.0
2017-Jun-19 07:28N 68°35' E 014°57'0 0.0
2017-Jun-19 06:58N 68°35' E 014°57'0 0.0
2017-Jun-19 06:28N 68°35' E 014°57'0 0.0
2017-Jun-19 05:58N 68°35' E 014°57'0 0.0
2017-Jun-19 05:30N 68°35' E 014°57'0 0.6
2017-Jun-19 05:01N 68°35' E 014°58'5 9.9
2017-Jun-19 04:30N 68°31' E 015°08'5 9.3
2017-Jun-19 04:00N 68°27' E 015°11'611.4
2017-Jun-19 03:30N 68°22' E 015°03'611.1
2017-Jun-19 03:00N 68°17' E 014°58'4 8.5
2017-Jun-19 02:30N 68°13' E 015°02'611.0
2017-Jun-19 02:00N 68°13' E 015°16'510.8
2017-Jun-19 01:30N 68°13' E 015°31'2 4.1
2017-Jun-19 01:00N 68°13' E 015°37'510.5
2017-Jun-19 00:30N 68°10' E 015°24'510.3
2017-Jun-19 00:00N 68°08' E 015°11'510.4
2017-Jun-18 23:30N 68°05' E 014°59'510.4
2017-Jun-18 23:00N 68°03' E 014°48'510.2
2017-Jun-18 22:30N 67°60' E 014°36'510.3
2017-Jun-18 22:00N 67°57' E 014°25'510.4
2017-Jun-18 21:31N 67°53' E 014°16'5 9.9
2017-Jun-18 21:00N 67°49' E 014°08'5 9.7
2017-Jun-18 20:30N 67°45' E 014°02'5 9.8
2017-Jun-18 20:00N 67°40' E 013°56'510.1
2017-Jun-18 19:30N 67°37' E 013°47'5 9.8
2017-Jun-18 19:00N 67°33' E 013°38'5 9.6
2017-Jun-18 18:30N 67°30' E 013°29'5 9.9
2017-Jun-18 18:00N 67°26' E 013°20'510.3
2017-Jun-18 17:30N 67°22' E 013°11'5610.0
2017-Jun-18 11:53N 66°37' E 011°45'410.0
2017-Jun-18 11:30N 66°34' E 011°41'510.0
2017-Jun-18 11:00N 66°30' E 011°35'510.0
2017-Jun-18 10:30N 66°25' E 011°29'16810.2
2017-Jun-17 17:58N 63°59' E 008°13'510.5
2017-Jun-17 17:30N 63°54' E 008°08'510.5
2017-Jun-17 17:00N 63°50' E 008°02'510.7
2017-Jun-17 16:30N 63°45' E 007°56'612.5
2017-Jun-17 16:00N 63°40' E 007°49'612.8
2017-Jun-17 15:30N 63°34' E 007°42'613.0
2017-Jun-17 15:01N 63°29' E 007°35'1211.5
2017-Jun-17 14:00N 63°17' E 007°36'611.5
2017-Jun-17 13:31N 63°13' E 007°45'510.7
2017-Jun-17 13:01N 63°08' E 007°41'4 8.7
2017-Jun-17 12:31N 63°03' E 007°40'0 0.0
2017-Jun-17 12:00N 63°03' E 007°39'0 0.0
2017-Jun-17 11:30N 63°03' E 007°39'0 0.0
2017-Jun-17 11:00N 63°03' E 007°39'0 0.0
2017-Jun-17 10:30N 63°03' E 007°39'0 0.0
2017-Jun-17 10:00N 63°03' E 007°39'0 0.0
2017-Jun-17 09:30N 63°03' E 007°39'0 0.0
2017-Jun-17 09:00N 63°03' E 007°39'0 0.0
2017-Jun-17 08:30N 63°03' E 007°39'0 0.0
2017-Jun-17 08:00N 63°03' E 007°39'0 0.0
2017-Jun-17 07:30N 63°03' E 007°39'1 1.4
2017-Jun-17 07:00N 63°04' E 007°41'5 9.3
2017-Jun-17 06:30N 63°08' E 007°41'510.0
2017-Jun-17 06:00N 63°13' E 007°43'3 6.7
2017-Jun-17 05:30N 63°15' E 007°37'3 5.6
2017-Jun-17 05:00N 63°14' E 007°31'3 5.7
2017-Jun-17 04:30N 63°14' E 007°24'3 5.7
2017-Jun-17 04:00N 63°13' E 007°18'4 7.2
2017-Jun-17 03:30N 63°11' E 007°11'510.0
2017-Jun-17 03:00N 63°09' E 007°01'510.0
2017-Jun-17 02:30N 63°07' E 006°51'5 9.9
2017-Jun-17 02:00N 63°05' E 006°41'5 9.8
2017-Jun-17 01:30N 63°03' E 006°31'510.1
2017-Jun-17 01:00N 63°01' E 006°21'510.3
2017-Jun-17 00:30N 62°58' E 006°11'510.1
2017-Jun-17 00:00N 62°56' E 006°01'510.1
2017-Jun-16 23:30N 62°54' E 005°51'1210.1
2017-Jun-16 22:16N 62°47' E 005°29'310.2
2017-Jun-16 22:00N 62°45' E 005°25'510.0
2017-Jun-16 21:29N 62°41' E 005°17'28 9.7
2017-Jun-16 18:37N 62°19' E 004°41'1 9.8
2017-Jun-16 18:30N 62°18' E 004°40'5 9.9
2017-Jun-16 18:00N 62°13' E 004°36'510.1
2017-Jun-16 17:30N 62°09' E 004°32'510.2
2017-Jun-16 17:00N 62°04' E 004°28'19510.9
2017-Jun-15 23:08N 58°49' E 004°41'211.1
2017-Jun-15 23:00N 58°48' E 004°42'511.2
2017-Jun-15 22:30N 58°43' E 004°47'611.1
2017-Jun-15 22:00N 58°38' E 004°52'611.0
2017-Jun-15 21:30N 58°33' E 004°57'510.8
2017-Jun-15 21:00N 58°28' E 005°00'6111.1
2017-Jun-15 15:31N 57°33' E 005°48'012.2
2017-Jun-15 15:30N 57°33' E 005°48'1910.8
2017-Jun-15 13:43N 57°14' E 005°59'  
Track history (hours):
 
Tides and Currents Weather Stations Pressure Air Temp Water Temp Dewpoint Dewpoint Depression Visibility Wind Speed Wind Dir Waves Ship Positions

Wilson Clyde

Last reported at 2017-Jun-24 08:28 UTC. Time now 2017-Jun-24 08:57 UTC.
Position N 68°24' E 016°50'.

Length 100 m; draft 4 m.

Type: Cargo ship. MMSI: 314187000.

Date/timePositionNaut miles runAvg speedWind from/ knotsBaromVisibWave heightAir tempDewpointWater temp
2017-Jun-24 08:28N 68°24' E 016°50'0 0.0
2017-Jun-24 07:58N 68°24' E 016°50'0 0.0
2017-Jun-24 07:28N 68°24' E 016°50'0 0.0
2017-Jun-24 06:58N 68°24' E 016°50'0 0.0
2017-Jun-24 06:28N 68°24' E 016°50'0 0.0
2017-Jun-24 05:58N 68°24' E 016°50'0 0.0
2017-Jun-24 05:28N 68°24' E 016°50'0 0.0
2017-Jun-24 04:58N 68°24' E 016°50'0 0.0
2017-Jun-24 04:30N 68°24' E 016°50'1 1.2
2017-Jun-24 04:00N 68°25' E 016°51'5 9.8
2017-Jun-24 03:29N 68°26' E 016°37'511.1
2017-Jun-24 03:00N 68°24' E 016°23'510.8
2017-Jun-24 02:30N 68°23' E 016°09'4 6.8
2017-Jun-24 01:55N 68°25' E 016°01'0 0.1
2017-Jun-24 01:28N 68°25' E 016°01'0 0.0
2017-Jun-24 00:58N 68°25' E 016°00'0 0.0
2017-Jun-24 00:28N 68°25' E 016°00'0 0.1
2017-Jun-23 23:58N 68°25' E 016°01'0 0.0
2017-Jun-23 23:28N 68°25' E 016°01'0 0.0
2017-Jun-23 22:58N 68°25' E 016°01'0 0.0
2017-Jun-23 22:28N 68°25' E 016°01'0 0.0
2017-Jun-23 21:58N 68°25' E 016°01'0 0.0
2017-Jun-23 21:28N 68°25' E 016°01'0 0.0
2017-Jun-23 20:55N 68°25' E 016°01'0 0.0
2017-Jun-23 20:28N 68°25' E 016°01'0 0.0
2017-Jun-23 19:58N 68°25' E 016°01'0 0.0
2017-Jun-23 19:28N 68°25' E 016°01'0 0.0
2017-Jun-23 18:58N 68°25' E 016°01'0 0.0
2017-Jun-23 18:28N 68°25' E 016°01'0 0.0
2017-Jun-23 17:58N 68°25' E 016°01'0 0.0
2017-Jun-23 17:28N 68°25' E 016°01'0 0.0
2017-Jun-23 16:55N 68°25' E 016°01'0 0.0
2017-Jun-23 16:28N 68°25' E 016°01'0 0.0
2017-Jun-23 15:58N 68°25' E 016°00'0 0.1
2017-Jun-23 15:28N 68°25' E 016°00'1 1.7
2017-Jun-23 15:00N 68°25' E 016°01'1211.4
2017-Jun-23 14:00N 68°16' E 015°42'510.8
2017-Jun-23 13:30N 68°13' E 015°29'611.7
2017-Jun-23 12:59N 68°12' E 015°13'611.9
2017-Jun-23 12:30N 68°12' E 014°57'611.1
2017-Jun-23 12:00N 68°18' E 014°58'611.1
2017-Jun-23 11:30N 68°23' E 015°05'510.3
2017-Jun-23 11:00N 68°27' E 015°12'510.5
2017-Jun-23 10:30N 68°32' E 015°06'4 7.8
2017-Jun-23 10:00N 68°35' E 014°57'0 0.0
2017-Jun-23 09:28N 68°35' E 014°57'0 0.0
2017-Jun-23 08:58N 68°35' E 014°57'0 0.0
2017-Jun-23 08:28N 68°35' E 014°57'0 0.0
2017-Jun-23 07:58N 68°35' E 014°57'0 0.0
2017-Jun-23 07:28N 68°35' E 014°57'0 0.0
2017-Jun-23 06:58N 68°35' E 014°57'0 0.0
2017-Jun-23 06:28N 68°35' E 014°57'0 0.0
2017-Jun-23 05:58N 68°35' E 014°57'0 0.0
2017-Jun-23 05:28N 68°35' E 014°57'0 0.0
2017-Jun-23 04:58N 68°35' E 014°57'0 0.0
2017-Jun-23 04:28N 68°35' E 014°57'0 0.0
2017-Jun-23 03:58N 68°35' E 014°57'0 0.0
2017-Jun-23 03:28N 68°35' E 014°57'0 0.0
2017-Jun-23 02:58N 68°35' E 014°57'0 0.0
2017-Jun-23 02:28N 68°35' E 014°57'0 0.0
2017-Jun-23 01:58N 68°35' E 014°57'0 0.0
2017-Jun-23 01:28N 68°35' E 014°57'0 0.0
2017-Jun-23 00:58N 68°35' E 014°57'0 0.0
2017-Jun-23 00:28N 68°35' E 014°57'0 0.0
2017-Jun-22 23:58N 68°35' E 014°57'0 0.0
2017-Jun-22 23:28N 68°35' E 014°57'0 0.0
2017-Jun-22 22:58N 68°35' E 014°57'0 0.0
2017-Jun-22 22:28N 68°35' E 014°57'0 0.0
2017-Jun-22 21:58N 68°35' E 014°57'0 0.0
2017-Jun-22 21:28N 68°35' E 014°57'0 0.0
2017-Jun-22 20:58N 68°35' E 014°57'0 0.0
2017-Jun-22 20:28N 68°35' E 014°57'0 0.0
2017-Jun-22 19:58N 68°35' E 014°57'0 0.0
2017-Jun-22 19:28N 68°35' E 014°57'0 0.0
2017-Jun-22 18:58N 68°35' E 014°57'0 0.0
2017-Jun-22 18:28N 68°35' E 014°57'0 0.0
2017-Jun-22 17:58N 68°35' E 014°57'0 0.0
2017-Jun-22 17:28N 68°35' E 014°57'0 0.0
2017-Jun-22 16:58N 68°35' E 014°57'0 0.0
2017-Jun-22 16:28N 68°35' E 014°57'0 0.0
2017-Jun-22 15:58N 68°35' E 014°57'0 0.0
2017-Jun-22 15:28N 68°35' E 014°57'0 0.0
2017-Jun-22 14:58N 68°35' E 014°57'0 0.0
2017-Jun-22 14:28N 68°35' E 014°57'0 0.0
2017-Jun-22 13:28N 68°35' E 014°57'0 0.0
2017-Jun-22 12:58N 68°35' E 014°57'0 0.0
2017-Jun-22 12:28N 68°35' E 014°57'0 0.0
2017-Jun-22 11:58N 68°35' E 014°57'0 0.0
2017-Jun-22 11:28N 68°35' E 014°57'0 0.0
2017-Jun-22 10:58N 68°35' E 014°57'0 0.0
2017-Jun-22 10:28N 68°35' E 014°57'0 0.0
2017-Jun-22 09:58N 68°35' E 014°57'0 0.0
2017-Jun-22 09:28N 68°35' E 014°57'0 0.0
2017-Jun-22 08:58N 68°35' E 014°57'0 0.0
2017-Jun-22 08:28N 68°35' E 014°57'0 0.0
2017-Jun-22 07:58N 68°35' E 014°57'0 0.0
2017-Jun-22 07:28N 68°35' E 014°57'0 0.0
2017-Jun-22 06:58N 68°35' E 014°57'0 0.0
2017-Jun-22 06:28N 68°35' E 014°57'0 0.0
2017-Jun-22 05:58N 68°35' E 014°57'0 0.0
2017-Jun-22 05:28N 68°35' E 014°57'0 0.0
2017-Jun-22 04:58N 68°35' E 014°57'0 0.0
2017-Jun-22 04:28N 68°35' E 014°57'0 0.0
2017-Jun-22 03:58N 68°35' E 014°57'0 0.0
2017-Jun-22 03:28N 68°35' E 014°57'0 0.0
2017-Jun-22 02:58N 68°35' E 014°57'0 0.0
2017-Jun-22 02:28N 68°35' E 014°57'0 0.0
2017-Jun-22 01:58N 68°35' E 014°57'0 0.0
2017-Jun-22 01:28N 68°35' E 014°57'0 0.0
2017-Jun-22 00:58N 68°35' E 014°57'0 0.0
2017-Jun-22 00:28N 68°35' E 014°57'0 0.0
2017-Jun-21 23:58N 68°35' E 014°57'0 0.0
2017-Jun-21 23:28N 68°35' E 014°57'0 0.0
2017-Jun-21 22:58N 68°35' E 014°57'0 0.0
2017-Jun-21 22:28N 68°35' E 014°57'0 0.0
2017-Jun-21 21:58N 68°35' E 014°57'0 0.0
2017-Jun-21 21:28N 68°35' E 014°57'0 0.0
2017-Jun-21 20:58N 68°35' E 014°57'0 0.0
2017-Jun-21 20:28N 68°35' E 014°57'0 0.0
2017-Jun-21 19:58N 68°35' E 014°57'0 0.0
2017-Jun-21 19:28N 68°35' E 014°57'0 0.0
2017-Jun-21 18:58N 68°35' E 014°57'0 0.0
2017-Jun-21 18:28N 68°35' E 014°57'0 0.0
2017-Jun-21 17:58N 68°35' E 014°57'0 0.0
2017-Jun-21 17:28N 68°35' E 014°57'0 0.0
2017-Jun-21 16:58N 68°35' E 014°57'0 0.0
2017-Jun-21 16:28N 68°35' E 014°57'0 0.0
2017-Jun-21 15:58N 68°35' E 014°57'0 0.0
2017-Jun-21 15:28N 68°35' E 014°57'0 0.0
2017-Jun-21 14:58N 68°35' E 014°57'0 0.0
2017-Jun-21 14:28N 68°35' E 014°57'0 0.0
2017-Jun-21 11:37N 68°35' E 014°57'0 0.0
2017-Jun-21 10:58N 68°35' E 014°57'0 0.0
2017-Jun-20 20:46N 68°35' E 014°57'0 0.0
2017-Jun-20 08:43N 68°35' E 014°57'0 0.0
2017-Jun-19 12:49N 68°35' E 014°57'0 0.0
2017-Jun-19 12:28N 68°35' E 014°57'0 0.0
2017-Jun-19 11:58N 68°35' E 014°57'0 0.0
2017-Jun-19 11:28N 68°35' E 014°57'0 0.0
2017-Jun-19 10:58N 68°35' E 014°57'0 0.0
2017-Jun-19 10:28N 68°35' E 014°57'0 0.0
2017-Jun-19 09:58N 68°35' E 014°57'0 0.0
2017-Jun-19 09:28N 68°35' E 014°57'0 0.0
2017-Jun-19 08:58N 68°35' E 014°57'0 0.0
2017-Jun-19 08:28N 68°35' E 014°57'0 0.0
2017-Jun-19 07:58N 68°35' E 014°57'0 0.0
2017-Jun-19 07:28N 68°35' E 014°57'0 0.0
2017-Jun-19 06:58N 68°35' E 014°57'0 0.0
2017-Jun-19 06:28N 68°35' E 014°57'0 0.0
2017-Jun-19 05:58N 68°35' E 014°57'0 0.0
2017-Jun-19 05:30N 68°35' E 014°57'0 0.6
2017-Jun-19 05:01N 68°35' E 014°58'5 9.9
2017-Jun-19 04:30N 68°31' E 015°08'5 9.3
2017-Jun-19 04:00N 68°27' E 015°11'611.4
2017-Jun-19 03:30N 68°22' E 015°03'611.1
2017-Jun-19 03:00N 68°17' E 014°58'4 8.5
2017-Jun-19 02:30N 68°13' E 015°02'611.0
2017-Jun-19 02:00N 68°13' E 015°16'510.8
2017-Jun-19 01:30N 68°13' E 015°31'2 4.1
2017-Jun-19 01:00N 68°13' E 015°37'510.5
2017-Jun-19 00:30N 68°10' E 015°24'510.3
2017-Jun-19 00:00N 68°08' E 015°11'510.4
2017-Jun-18 23:30N 68°05' E 014°59'510.4
2017-Jun-18 23:00N 68°03' E 014°48'510.2
2017-Jun-18 22:30N 67°60' E 014°36'510.3
2017-Jun-18 22:00N 67°57' E 014°25'510.4
2017-Jun-18 21:31N 67°53' E 014°16'5 9.9
2017-Jun-18 21:00N 67°49' E 014°08'5 9.7
2017-Jun-18 20:30N 67°45' E 014°02'5 9.8
2017-Jun-18 20:00N 67°40' E 013°56'510.1
2017-Jun-18 19:30N 67°37' E 013°47'5 9.8
2017-Jun-18 19:00N 67°33' E 013°38'5 9.6
2017-Jun-18 18:30N 67°30' E 013°29'5 9.9
2017-Jun-18 18:00N 67°26' E 013°20'510.3
2017-Jun-18 17:30N 67°22' E 013°11'5610.0
2017-Jun-18 11:53N 66°37' E 011°45'410.0
2017-Jun-18 11:30N 66°34' E 011°41'510.0
2017-Jun-18 11:00N 66°30' E 011°35'510.0
2017-Jun-18 10:30N 66°25' E 011°29'16810.2
2017-Jun-17 17:58N 63°59' E 008°13'510.5
2017-Jun-17 17:30N 63°54' E 008°08'510.5
2017-Jun-17 17:00N 63°50' E 008°02'510.7
2017-Jun-17 16:30N 63°45' E 007°56'612.5
2017-Jun-17 16:00N 63°40' E 007°49'612.8
2017-Jun-17 15:30N 63°34' E 007°42'613.0
2017-Jun-17 15:01N 63°29' E 007°35'1211.5
2017-Jun-17 14:00N 63°17' E 007°36'611.5
2017-Jun-17 13:31N 63°13' E 007°45'510.7
2017-Jun-17 13:01N 63°08' E 007°41'4 8.7
2017-Jun-17 12:31N 63°03' E 007°40'0 0.0
2017-Jun-17 12:00N 63°03' E 007°39'0 0.0
2017-Jun-17 11:30N 63°03' E 007°39'0 0.0
2017-Jun-17 11:00N 63°03' E 007°39'0 0.0
2017-Jun-17 10:30N 63°03' E 007°39'0 0.0
2017-Jun-17 10:00N 63°03' E 007°39'0 0.0
2017-Jun-17 09:30N 63°03' E 007°39'0 0.0
2017-Jun-17 09:00N 63°03' E 007°39'0 0.0
2017-Jun-17 08:30N 63°03' E 007°39'0 0.0
2017-Jun-17 08:00N 63°03' E 007°39'0 0.0
2017-Jun-17 07:30N 63°03' E 007°39'1 1.4
2017-Jun-17 07:00N 63°04' E 007°41'5 9.3
2017-Jun-17 06:30N 63°08' E 007°41'510.0
2017-Jun-17 06:00N 63°13' E 007°43'3 6.7
2017-Jun-17 05:30N 63°15' E 007°37'3 5.6
2017-Jun-17 05:00N 63°14' E 007°31'3 5.7
2017-Jun-17 04:30N 63°14' E 007°24'3 5.7
2017-Jun-17 04:00N 63°13' E 007°18'4 7.2
2017-Jun-17 03:30N 63°11' E 007°11'510.0
2017-Jun-17 03:00N 63°09' E 007°01'510.0
2017-Jun-17 02:30N 63°07' E 006°51'5 9.9
2017-Jun-17 02:00N 63°05' E 006°41'5 9.8
2017-Jun-17 01:30N 63°03' E 006°31'510.1
2017-Jun-17 01:00N 63°01' E 006°21'510.3
2017-Jun-17 00:30N 62°58' E 006°11'510.1
2017-Jun-17 00:00N 62°56' E 006°01'510.1
2017-Jun-16 23:30N 62°54' E 005°51'1210.1
2017-Jun-16 22:16N 62°47' E 005°29'310.2
2017-Jun-16 22:00N 62°45' E 005°25'510.0
2017-Jun-16 21:29N 62°41' E 005°17'28 9.7
2017-Jun-16 18:37N 62°19' E 004°41'1 9.8
2017-Jun-16 18:30N 62°18' E 004°40'5 9.9
2017-Jun-16 18:00N 62°13' E 004°36'510.1
2017-Jun-16 17:30N 62°09' E 004°32'510.2
2017-Jun-16 17:00N 62°04' E 004°28'19510.9
2017-Jun-15 23:08N 58°49' E 004°41'211.1
2017-Jun-15 23:00N 58°48' E 004°42'511.2
2017-Jun-15 22:30N 58°43' E 004°47'611.1
2017-Jun-15 22:00N 58°38' E 004°52'611.0
2017-Jun-15 21:30N 58°33' E 004°57'510.8
2017-Jun-15 21:00N 58°28' E 005°00'6111.1
2017-Jun-15 15:31N 57°33' E 005°48'012.2
2017-Jun-15 15:30N 57°33' E 005°48'1910.8
2017-Jun-15 13:43N 57°14' E 005°59'  

Dump ship's entire track history